Time;durP1;ratioP1;P1;durP2;ratioP2;P2;SDS_P1;SDS_P2;PMS_P1;PMS_P2;Temp;Humidity;BMP_temperature;BMP_pressure;BME280_temperature;BME280_humidity;BME280_pressure;Samples;Min_cycle;Max_cycle;Signal;HPM_P1;HPM_P2
2024/03/28 00:02:02;;;;;;;2.63;2.38;;;;;;;7.82;60.87;98108.69;5086132;28;20035;-64
2024/03/28 00:04:27;;;;;;;3.17;2.47;;;;;;;7.84;60.77;98106.91;5086042;28;20024;-65
2024/03/28 00:06:53;;;;;;;3.42;2.35;;;;;;;7.79;61.01;98103.63;5084500;28;20027;-65
2024/03/28 00:09:18;;;;;;;4.70;2.38;;;;;;;7.75;61.25;98102.88;5085864;28;20028;-64
2024/03/28 00:11:43;;;;;;;2.83;2.35;;;;;;;7.75;61.32;98100.28;5085755;28;20027;-65
2024/03/28 00:14:09;;;;;;;3.47;2.10;;;;;;;7.66;61.23;98080.78;5085847;28;20024;-65
2024/03/28 00:16:34;;;;;;;3.28;2.03;;;;;;;7.68;61.28;98088.50;5085656;28;20031;-64
2024/03/28 00:18:59;;;;;;;4.13;2.25;;;;;;;7.62;61.36;98073.19;5085633;28;20038;-63
2024/03/28 00:21:25;;;;;;;3.00;1.95;;;;;;;7.66;61.73;98080.78;5085632;28;20039;-64
2024/03/28 00:23:50;;;;;;;3.38;2.85;;;;;;;7.58;61.38;98062.13;5085135;28;20020;-64
2024/03/28 00:26:15;;;;;;;1.35;0.80;;;;;;;7.63;61.60;98062.81;5085469;28;20020;-63
2024/03/28 00:28:41;;;;;;;4.35;3.20;;;;;;;7.54;62.01;98058.81;5083977;28;20031;-64
2024/03/28 00:31:07;;;;;;;5.43;2.40;;;;;;;7.57;61.81;98065.63;5085855;28;20031;-63
2024/03/28 00:33:32;;;;;;;2.10;1.85;;;;;;;7.52;62.03;98058.03;5085526;28;20032;-64
2024/03/28 00:35:58;;;;;;;4.00;2.88;;;;;;;7.46;62.40;98050.47;5084788;28;20017;-64
2024/03/28 00:38:23;;;;;;;2.58;2.35;;;;;;;7.18;62.21;98015.25;5085360;28;20109;-63
2024/03/28 00:40:50;;;;;;;3.00;1.83;;;;;;;7.44;62.28;98060.00;5083964;28;20043;-64
2024/03/28 00:43:16;;;;;;;4.75;2.17;;;;;;;7.41;62.42;98049.78;5085195;28;20016;-64
2024/03/28 00:45:42;;;;;;;2.67;2.17;;;;;;;7.38;62.32;98048.13;5085458;28;20021;-64
2024/03/28 00:48:11;;;;;;;6.60;2.35;;;;;;;7.38;62.53;98048.13;5085308;28;20056;-63
2024/03/28 00:50:37;;;;;;;4.30;1.77;;;;;;;7.32;62.60;98043.19;5085217;28;20443;-64
2024/03/28 00:53:03;;;;;;;3.55;2.75;;;;;;;7.32;62.55;98046.63;5084860;28;20144;-64
2024/03/28 00:55:29;;;;;;;6.93;2.85;;;;;;;7.28;62.60;98039.03;5085546;28;20025;-64
2024/03/28 00:57:54;;;;;;;8.93;2.78;;;;;;;7.24;62.63;98038.28;5085053;28;20021;-64
2024/03/28 01:00:20;;;;;;;2.67;1.98;;;;;;;7.21;62.75;98033.22;5083834;28;20024;-63
2024/03/28 01:02:46;;;;;;;3.05;1.85;;;;;;;7.16;62.90;98020.47;5085058;28;20075;-65
2024/03/28 01:05:12;;;;;;;3.72;2.38;;;;;;;7.17;63.06;98032.47;5083723;28;20534;-64
2024/03/28 01:07:37;;;;;;;5.90;2.42;;;;;;;7.15;63.05;98021.38;5083564;28;20048;-64
2024/03/28 01:10:03;;;;;;;7.18;3.38;;;;;;;7.09;63.09;98025.88;5083326;28;20380;-64
2024/03/28 01:12:29;;;;;;;3.03;2.72;;;;;;;7.11;63.06;98032.69;5085051;28;20032;-64
2024/03/28 01:14:55;;;;;;;3.30;2.38;;;;;;;7.07;63.07;98021.63;5084847;28;20054;-65
2024/03/28 01:17:20;;;;;;;8.20;2.35;;;;;;;7.01;63.04;98024.38;5085166;28;20055;-65
2024/03/28 01:19:45;;;;;;;3.15;2.05;;;;;;;7.00;63.20;98019.28;5085347;28;20029;-65
2024/03/28 01:22:11;;;;;;;5.30;3.03;;;;;;;6.86;63.54;98004.25;5083544;28;20039;-63
2024/03/28 01:24:36;;;;;;;3.75;2.70;;;;;;;6.82;63.98;98004.34;5084858;28;20027;-63
2024/03/28 01:27:02;;;;;;;5.47;2.90;;;;;;;6.87;63.96;98017.09;5083538;28;20060;-63
2024/03/28 01:29:29;;;;;;;4.82;2.55;;;;;;;6.84;64.44;98014.63;5084836;28;20032;-63
2024/03/28 01:31:54;;;;;;;3.83;2.72;;;;;;;6.80;64.28;98018.19;5084907;28;20028;-63
2024/03/28 01:34:19;;;;;;;3.65;2.45;;;;;;;6.76;64.43;98011.44;5084902;28;20035;-64
2024/03/28 01:36:45;;;;;;;4.03;3.25;;;;;;;6.73;64.34;98019.25;5084979;28;20036;-63
2024/03/28 01:39:10;;;;;;;4.00;2.95;;;;;;;6.66;64.48;98006.56;5084581;28;20029;-63
2024/03/28 01:41:36;;;;;;;11.30;2.30;;;;;;;6.61;64.59;98008.47;5083118;28;20020;-64
2024/03/28 01:44:01;;;;;;;2.65;2.33;;;;;;;6.57;64.93;98012.84;5084539;28;20052;-64
2024/03/28 01:46:27;;;;;;;2.95;2.45;;;;;;;6.52;64.79;98012.16;5084536;28;20029;-65
2024/03/28 01:48:54;;;;;;;10.55;3.17;;;;;;;6.53;65.28;98011.25;5088031;28;20024;-64
2024/03/28 01:51:20;;;;;;;9.57;3.47;;;;;;;6.46;65.31;98004.59;5088653;28;20050;-64
2024/03/28 01:53:47;;;;;;;6.88;3.35;;;;;;;6.44;65.33;98003.81;5088473;28;20088;-64
2024/03/28 01:56:14;;;;;;;7.95;3.30;;;;;;;6.44;65.64;98011.53;5088532;28;20041;-64
2024/03/28 01:58:40;;;;;;;5.35;3.10;;;;;;;6.47;66.15;98005.47;5088444;28;20075;-64
2024/03/28 02:01:07;;;;;;;3.38;1.80;;;;;;;6.49;66.38;98003.66;5088516;28;20064;-63
2024/03/28 02:03:32;;;;;;;2.85;1.80;;;;;;;6.48;66.61;98001.97;5088134;28;20063;-64
2024/03/28 02:05:59;;;;;;;6.38;3.47;;;;;;;6.48;66.67;98000.25;5088297;28;20025;-64
2024/03/28 02:08:27;;;;;;;7.97;4.00;;;;;;;6.39;66.55;97985.91;5087837;28;20105;-63
2024/03/28 02:10:53;;;;;;;3.75;2.85;;;;;;;6.42;66.55;97990.97;5088219;28;20076;-64
2024/03/28 02:13:19;;;;;;;3.45;3.15;;;;;;;6.41;66.72;97980.69;5088122;28;20032;-64
2024/03/28 02:15:44;;;;;;;2.95;2.72;;;;;;;6.37;66.52;97985.13;5088132;28;20020;-63
2024/03/28 02:18:09;;;;;;;2.72;2.35;;;;;;;6.29;66.48;97964.72;5086775;28;20051;-64
2024/03/28 02:20:35;;;;;;;4.18;3.22;;;;;;;6.30;66.68;97968.16;5088055;28;20024;-64
2024/03/28 02:23:00;;;;;;;3.70;2.67;;;;;;;6.28;66.65;97964.75;5087795;28;20496;-63
2024/03/28 02:25:26;;;;;;;4.80;2.90;;;;;;;6.25;66.62;97962.28;5087918;28;20026;-64
2024/03/28 02:27:51;;;;;;;6.13;3.17;;;;;;;6.23;66.71;97956.34;5087946;28;20088;-63
2024/03/28 02:30:17;;;;;;;3.38;2.65;;;;;;;6.25;66.70;97967.44;5087966;28;20025;-63
2024/03/28 02:32:42;;;;;;;4.47;2.08;;;;;;;6.23;66.89;97961.50;5087850;28;20028;-63
2024/03/28 02:35:08;;;;;;;5.35;2.35;;;;;;;6.22;66.99;97959.78;5087789;28;20040;-64
2024/03/28 02:37:33;;;;;;;4.13;2.67;;;;;;;6.21;66.91;97943.50;5087664;28;20024;-63
2024/03/28 02:40:01;;;;;;;5.22;2.88;;;;;;;6.16;66.94;97929.91;5087348;28;20020;-63
2024/03/28 02:42:26;;;;;;;5.80;3.55;;;;;;;6.20;67.07;97937.50;5087684;28;20032;-65
2024/03/28 02:44:52;;;;;;;3.15;2.85;;;;;;;6.15;67.11;97939.38;5087574;28;20024;-64
2024/03/28 02:47:18;;;;;;;3.83;2.78;;;;;;;6.17;67.31;97941.91;5087854;28;20083;-64
2024/03/28 02:49:44;;;;;;;4.10;2.75;;;;;;;6.15;67.32;97936.78;5086085;28;20048;-65
2024/03/28 02:52:09;;;;;;;4.65;2.75;;;;;;;6.15;67.39;97929.06;5087626;28;20055;-64
2024/03/28 02:54:34;;;;;;;5.60;3.70;;;;;;;6.14;67.43;97932.53;5087056;28;20052;-63
2024/03/28 02:57:04;;;;;;;4.78;2.55;;;;;;;6.13;67.60;97933.44;5087489;28;20048;-64
2024/03/28 02:59:30;;;;;;;6.78;2.83;;;;;;;6.12;67.76;97931.75;5086651;28;20074;-63
2024/03/28 03:01:56;;;;;;;4.50;2.92;;;;;;;6.14;67.86;97934.25;5086219;28;20377;-64
2024/03/28 03:04:21;;;;;;;1.20;1.10;;;;;;;6.07;67.67;97921.56;5087220;28;20028;-63
2024/03/28 03:06:47;;;;;;;3.47;2.60;;;;;;;6.11;67.93;97931.78;5086962;28;20024;-62
2024/03/28 03:09:12;;;;;;;9.43;2.78;;;;;;;6.09;68.15;97931.00;5085598;28;20035;-63
2024/03/28 03:11:37;;;;;;;2.53;1.90;;;;;;;6.05;68.10;97919.94;5087207;28;20051;-64
2024/03/28 03:14:03;;;;;;;9.10;2.33;;;;;;;6.08;68.29;97932.72;5087080;28;20055;-64
2024/03/28 03:16:28;;;;;;;4.10;2.63;;;;;;;6.07;68.30;97920.75;5085654;28;20460;-64
2024/03/28 03:18:53;;;;;;;8.50;3.65;;;;;;;6.00;68.29;97914.03;5086802;28;20016;-64
2024/03/28 03:21:19;;;;;;;6.28;3.05;;;;;;;6.02;68.37;97920.00;5087061;28;20028;-63
2024/03/28 03:23:52;;;;;;;4.32;3.60;;;;;;;6.02;68.28;97912.28;5086708;28;20036;-64
2024/03/28 03:26:21;;;;;;;2.95;2.05;;;;;;;5.99;68.54;97909.81;5087137;28;20013;-63
2024/03/28 03:37:00;;;;;;;8.75;2.50;;;;;;;5.91;68.47;97915.19;5086794;28;20035;-64
2024/03/28 03:39:25;;;;;;;7.45;3.38;;;;;;;5.91;68.61;97910.84;5086426;28;20103;-63
2024/03/28 03:41:51;;;;;;;9.15;3.45;;;;;;;5.86;68.70;97897.28;5086499;28;20024;-63
2024/03/28 03:44:16;;;;;;;3.70;2.45;;;;;;;5.86;68.82;97894.72;5086324;28;20028;-64
2024/03/28 03:46:42;;;;;;;3.83;2.20;;;;;;;5.91;68.95;97899.72;5086531;28;20036;-63
2024/03/28 03:49:07;;;;;;;8.05;3.47;;;;;;;5.88;69.03;97892.91;5086609;28;20024;-62
2024/03/28 03:51:35;;;;;;;7.68;3.13;;;;;;;5.88;68.85;97884.38;5084990;28;20472;-64
2024/03/28 03:54:00;;;;;;;2.63;2.25;;;;;;;5.84;69.05;97893.91;5086173;28;20021;-64
2024/03/28 03:56:26;;;;;;;3.78;2.55;;;;;;;5.83;69.20;97880.19;5086055;28;20021;-64
2024/03/28 03:58:51;;;;;;;3.15;2.47;;;;;;;5.84;69.08;97878.47;5086163;28;20092;-64
2024/03/28 04:01:17;;;;;;;5.05;2.78;;;;;;;5.78;69.17;97869.16;5086140;28;20468;-64
2024/03/28 04:03:43;;;;;;;5.63;3.30;;;;;;;5.74;69.20;97871.88;5086005;28;20426;-64
2024/03/28 04:06:10;;;;;;;2.92;2.42;;;;;;;5.82;69.39;97875.94;5086101;28;20020;-64
2024/03/28 04:08:36;;;;;;;2.03;1.88;;;;;;;5.84;69.30;97881.03;5085620;28;20041;-63
2024/03/28 04:11:01;;;;;;;7.28;3.00;;;;;;;5.79;69.32;97878.59;5084949;28;20051;-63
2024/03/28 04:13:27;;;;;;;2.38;2.17;;;;;;;5.82;69.27;97870.78;5085778;28;20030;-64
2024/03/28 04:15:52;;;;;;;5.22;3.60;;;;;;;5.86;69.29;97868.13;5085872;28;20195;-63
2024/03/28 04:18:17;;;;;;;5.20;2.90;;;;;;;5.86;69.18;97866.41;5085861;28;20296;-64
2024/03/28 04:20:43;;;;;;;9.10;3.45;;;;;;;5.85;69.24;97874.16;5085776;28;20027;-64
2024/03/28 04:23:08;;;;;;;3.35;2.20;;;;;;;5.84;69.38;97863.00;5085403;28;20021;-63
2024/03/28 04:25:33;;;;;;;2.15;2.03;;;;;;;5.83;69.41;97857.00;5085543;28;20040;-63
2024/03/28 04:27:59;;;;;;;5.15;3.90;;;;;;;5.82;69.53;97860.47;5085414;28;20029;-64
2024/03/28 04:30:36;;;;;;;9.18;2.83;;;;;;;5.80;69.42;97858.81;5085504;28;20017;-64
2024/03/28 04:33:02;;;;;;;9.13;2.65;;;;;;;5.79;69.51;97855.44;5084033;28;20088;-63
2024/03/28 04:35:27;;;;;;;15.70;2.22;;;;;;;5.85;69.36;97856.13;5085427;28;20032;-64
2024/03/28 04:37:53;;;;;;;2.65;2.33;;;;;;;5.86;69.69;97865.53;5085461;28;20040;-64
2024/03/28 04:40:18;;;;;;;5.78;2.90;;;;;;;5.87;69.81;97865.50;5085347;28;20542;-64
2024/03/28 04:42:50;;;;;;;13.57;5.30;;;;;;;5.89;69.93;97865.44;5085431;28;20028;-64
2024/03/28 04:45:19;;;;;;;2.88;2.25;;;;;;;5.87;69.72;97852.63;5085281;28;20063;-63
2024/03/28 04:47:53;;;;;;;5.40;2.70;;;;;;;5.89;69.86;97863.72;5085242;28;20036;-62
2024/03/28 04:50:19;;;;;;;3.03;2.67;;;;;;;5.92;69.98;97855.06;5085271;28;20021;-63
2024/03/28 04:52:45;;;;;;;10.32;2.92;;;;;;;5.98;70.01;97862.59;5085240;28;20076;-64
2024/03/28 04:55:11;;;;;;;2.88;1.65;;;;;;;6.03;69.92;97855.56;5085485;28;20073;-63
2024/03/28 04:57:36;;;;;;;2.05;1.75;;;;;;;6.01;70.04;97854.75;5085363;28;20392;-64
2024/03/28 05:00:06;;;;;;;14.95;4.20;;;;;;;6.04;70.03;97858.97;5085041;28;20028;-63
2024/03/28 05:02:31;;;;;;;2.55;2.33;;;;;;;6.04;70.00;97856.38;5084775;28;20103;-63
2024/03/28 05:04:57;;;;;;;3.58;2.92;;;;;;;6.06;69.78;97854.66;5084713;28;20020;-64
2024/03/28 05:07:23;;;;;;;2.25;2.08;;;;;;;6.09;69.94;97851.16;5083836;28;20490;-64
2024/03/28 05:09:49;;;;;;;3.25;2.40;;;;;;;6.06;70.06;97844.34;5084991;28;20024;-63
2024/03/28 05:12:15;;;;;;;3.42;2.53;;;;;;;6.08;70.23;97837.41;5085236;28;20024;-64
2024/03/28 05:14:40;;;;;;;3.35;2.45;;;;;;;6.13;70.12;97838.13;5084825;28;20047;-64
2024/03/28 05:17:07;;;;;;;4.70;2.08;;;;;;;6.16;70.20;97835.44;5083643;28;20107;-64
2024/03/28 05:19:33;;;;;;;2.40;2.20;;;;;;;6.20;70.08;97831.88;5084917;28;20107;-65
2024/03/28 05:21:58;;;;;;;5.00;3.28;;;;;;;6.19;70.06;97817.31;5084714;28;20025;-63
2024/03/28 05:24:24;;;;;;;4.35;2.78;;;;;;;6.20;70.01;97811.25;5084755;28;20025;-64
2024/03/28 05:26:50;;;;;;;3.38;1.75;;;;;;;6.24;70.02;97817.16;5084923;28;20025;-64
2024/03/28 05:29:15;;;;;;;3.40;2.70;;;;;;;6.27;70.24;97829.09;5084872;28;20104;-64
2024/03/28 05:31:41;;;;;;;3.67;3.30;;;;;;;6.35;70.08;97821.97;5084911;28;20040;-65
2024/03/28 05:34:07;;;;;;;5.07;2.88;;;;;;;6.44;70.20;97826.81;5084486;28;20046;-65
2024/03/28 05:36:32;;;;;;;3.53;2.80;;;;;;;6.50;69.95;97823.19;5084508;28;20031;-64
2024/03/28 05:38:58;;;;;;;2.70;2.30;;;;;;;6.49;69.86;97802.59;5083804;28;20024;-64
2024/03/28 05:41:23;;;;;;;3.17;2.75;;;;;;;6.69;70.26;97807.94;5084708;28;20028;-64
2024/03/28 05:43:49;;;;;;;5.65;3.85;;;;;;;6.78;69.93;97808.50;5084612;28;20017;-62
2024/03/28 05:46:14;;;;;;;6.03;4.68;;;;;;;6.84;69.73;97803.13;5085011;28;20032;-62
2024/03/28 05:48:39;;;;;;;5.05;3.22;;;;;;;6.88;69.42;97798.72;5084582;28;20024;-63
2024/03/28 05:51:05;;;;;;;7.43;3.10;;;;;;;6.86;69.47;97796.19;5084680;28;20031;-64
2024/03/28 05:53:30;;;;;;;3.83;3.13;;;;;;;6.84;69.45;97794.56;5084266;28;20056;-65
2024/03/28 05:55:55;;;;;;;5.15;2.60;;;;;;;6.69;69.21;97763.28;5084865;28;20017;-65
2024/03/28 05:58:21;;;;;;;8.23;3.53;;;;;;;6.83;69.28;97783.41;5084386;28;20032;-63
2024/03/28 06:00:46;;;;;;;6.88;3.03;;;;;;;6.81;69.14;97767.13;5083067;28;20020;-64
2024/03/28 06:03:12;;;;;;;7.57;3.45;;;;;;;6.81;69.21;97773.16;5084598;28;20020;-63
2024/03/28 06:05:37;;;;;;;9.48;3.53;;;;;;;6.82;68.93;97786.88;5084262;28;20076;-63
2024/03/28 06:08:03;;;;;;;6.43;3.35;;;;;;;6.78;68.93;97781.00;5084204;28;20056;-63
2024/03/28 06:10:28;;;;;;;3.80;2.55;;;;;;;6.82;69.16;97784.31;5084330;28;20097;-64
2024/03/28 06:12:53;;;;;;;3.38;2.60;;;;;;;6.86;69.17;97782.44;5084403;28;20024;-64
2024/03/28 06:15:19;;;;;;;4.05;2.72;;;;;;;6.92;69.22;97775.34;5084429;28;20076;-63
2024/03/28 06:17:44;;;;;;;6.63;3.83;;;;;;;6.92;69.15;97770.19;5084615;28;20021;-64
2024/03/28 06:20:10;;;;;;;3.70;2.25;;;;;;;7.01;69.17;97774.16;5084520;28;20024;-64
2024/03/28 06:22:37;;;;;;;6.97;3.78;;;;;;;7.03;69.08;97763.78;5084338;28;20024;-64
2024/03/28 06:25:02;;;;;;;2.63;2.05;;;;;;;7.05;69.03;97756.81;5084225;28;20031;-63
2024/03/28 06:27:27;;;;;;;13.45;2.58;;;;;;;7.10;68.91;97749.78;5084419;28;20024;-64
2024/03/28 06:29:53;;;;;;;2.42;2.20;;;;;;;7.10;68.75;97742.03;5083144;28;20032;-64
2024/03/28 06:32:26;;;;;;;3.42;2.95;;;;;;;7.14;68.61;97745.34;5084891;28;20445;-64
2024/03/28 06:34:55;;;;;;;2.80;2.33;;;;;;;7.31;69.15;97750.72;5086057;28;20055;-63
2024/03/28 06:37:21;;;;;;;5.65;3.20;;;;;;;7.54;68.96;97750.72;5088105;28;20043;-63
2024/03/28 06:39:48;;;;;;;5.18;2.72;;;;;;;7.79;69.04;97747.16;5087853;28;20016;-63
2024/03/28 06:42:13;;;;;;;9.30;4.43;;;;;;;8.01;68.91;97743.72;5088049;28;20017;-64
2024/03/28 06:44:47;;;;;;;5.75;3.45;;;;;;;8.19;68.84;97732.59;5087826;28;20024;-64
2024/03/28 06:47:12;;;;;;;5.88;3.38;;;;;;;8.46;68.93;97735.84;5088178;28;20121;-64
2024/03/28 06:49:39;;;;;;;6.95;3.10;;;;;;;8.59;68.27;97723.25;5087756;28;20376;-64
2024/03/28 06:52:05;;;;;;;7.15;3.53;;;;;;;8.91;68.90;97728.75;5087917;28;20043;-64
2024/03/28 06:54:30;;;;;;;2.55;2.28;;;;;;;9.46;69.17;97718.50;5087472;28;20099;-63
2024/03/28 06:56:55;;;;;;;4.00;3.22;;;;;;;9.84;68.56;97708.03;5086179;28;20020;-63
2024/03/28 06:59:21;;;;;;;4.78;3.00;;;;;;;10.26;67.38;97708.59;5087058;28;20028;-63
2024/03/28 07:01:46;;;;;;;5.55;3.55;;;;;;;10.43;66.09;97701.72;5087234;28;20042;-64
2024/03/28 07:04:11;;;;;;;7.95;3.53;;;;;;;10.54;65.42;97699.41;5087209;28;20024;-64
2024/03/28 07:06:37;;;;;;;7.15;3.85;;;;;;;10.68;65.71;97691.81;5087644;28;20088;-64
2024/03/28 07:09:02;;;;;;;5.78;3.17;;;;;;;11.07;65.80;97693.19;5086911;28;20051;-64
2024/03/28 07:11:28;;;;;;;3.20;2.53;;;;;;;11.50;64.92;97686.59;5087387;28;20074;-66
2024/03/28 07:13:56;;;;;;;4.60;3.47;;;;;;;11.79;64.45;97691.88;5087372;28;20029;-64
2024/03/28 07:16:21;;;;;;;3.65;3.03;;;;;;;12.19;63.93;97686.16;5087433;28;20098;-64
2024/03/28 07:18:46;;;;;;;3.80;3.17;;;;;;;12.52;62.86;97674.66;5087294;28;20103;-64
2024/03/28 07:21:12;;;;;;;6.38;2.92;;;;;;;12.71;61.33;97691.78;5087435;28;20028;-64
2024/03/28 07:23:40;;;;;;;4.72;2.67;;;;;;;12.21;59.62;97686.06;5086717;28;20032;-64
2024/03/28 07:26:07;;;;;;;4.82;2.88;;;;;;;11.50;59.16;97681.38;5085616;28;20038;-65
2024/03/28 07:28:32;;;;;;;5.10;3.10;;;;;;;10.86;59.38;97671.84;5087070;28;20017;-64
2024/03/28 07:30:58;;;;;;;7.75;3.47;;;;;;;10.39;59.76;97672.50;5086955;28;20094;-64
2024/03/28 07:33:23;;;;;;;2.72;2.47;;;;;;;10.07;59.99;97669.78;5086970;28;20025;-64
2024/03/28 07:35:48;;;;;;;8.75;3.38;;;;;;;9.87;60.30;97674.22;5086910;28;20025;-64
2024/03/28 07:38:14;;;;;;;2.83;2.60;;;;;;;9.66;60.56;97673.53;5086889;28;20024;-64
2024/03/28 07:40:39;;;;;;;7.38;2.30;;;;;;;9.44;60.84;97668.56;5086786;28;20034;-65
2024/03/28 07:43:04;;;;;;;3.65;2.70;;;;;;;9.29;61.18;97666.63;5086842;28;20047;-64
2024/03/28 07:45:30;;;;;;;5.45;3.38;;;;;;;9.10;61.34;97650.28;5086493;28;20039;-64
2024/03/28 07:47:55;;;;;;;8.18;3.00;;;;;;;9.00;61.73;97652.44;5087139;28;20021;-63
2024/03/28 07:50:20;;;;;;;4.40;2.92;;;;;;;8.96;61.87;97661.28;5086596;28;20396;-65
2024/03/28 07:52:46;;;;;;;4.78;3.63;;;;;;;8.87;62.15;97647.00;5086447;28;20051;-64
2024/03/28 07:55:12;;;;;;;11.23;2.53;;;;;;;8.76;62.29;97632.81;5086194;28;20444;-63
2024/03/28 07:57:37;;;;;;;3.97;2.67;;;;;;;8.71;62.67;97639.94;5086612;28;20029;-64
2024/03/28 08:00:03;;;;;;;4.32;2.85;;;;;;;8.70;62.79;97630.50;5086348;28;20028;-63
2024/03/28 08:02:29;;;;;;;7.95;3.97;;;;;;;8.63;62.83;97629.09;5086532;28;20024;-63
2024/03/28 08:04:54;;;;;;;3.97;3.28;;;;;;;8.62;63.03;97635.19;5086267;28;20348;-63
2024/03/28 08:07:19;;;;;;;5.32;3.42;;;;;;;8.51;63.36;97622.72;5086134;28;20045;-64
2024/03/28 08:09:46;;;;;;;5.50;3.05;;;;;;;8.43;63.44;97620.47;5086014;28;20055;-63
2024/03/28 08:12:14;;;;;;;7.03;2.95;;;;;;;8.37;63.64;97621.56;5084992;28;20024;-63
2024/03/28 08:14:40;;;;;;;4.60;2.78;;;;;;;8.35;63.82;97623.41;5086069;28;20095;-63
2024/03/28 08:17:07;;;;;;;6.57;3.17;;;;;;;8.31;63.91;97617.53;5086328;28;20048;-63
2024/03/28 08:19:33;;;;;;;4.40;2.95;;;;;;;8.34;63.80;97618.31;5086253;28;20017;-63
2024/03/28 08:21:58;;;;;;;3.78;2.67;;;;;;;8.33;63.81;97614.88;5086159;28;20479;-63
2024/03/28 08:24:26;;;;;;;4.85;3.45;;;;;;;8.34;63.81;97611.38;5085826;28;20024;-64
2024/03/28 08:26:51;;;;;;;4.65;2.75;;;;;;;8.31;64.05;97598.56;5086094;28;20088;-63
2024/03/28 08:29:17;;;;;;;2.80;2.13;;;;;;;8.29;64.24;97609.00;5085765;28;20028;-63
2024/03/28 08:31:43;;;;;;;8.20;3.03;;;;;;;8.15;64.13;97596.69;5084484;28;20024;-64
2024/03/28 08:34:09;;;;;;;2.88;2.47;;;;;;;8.23;64.08;97598.06;5085657;28;20103;-62
2024/03/28 08:36:34;;;;;;;4.25;3.05;;;;;;;8.19;64.16;97603.38;5085698;28;20495;-63
2024/03/28 08:39:00;;;;;;;2.35;2.15;;;;;;;8.19;64.52;97594.81;5085658;28;20020;-64
2024/03/28 08:41:26;;;;;;;8.05;3.15;;;;;;;8.15;64.37;97581.16;5085687;28;20357;-63
2024/03/28 08:43:51;;;;;;;4.80;3.33;;;;;;;8.17;64.75;97594.03;5085693;28;20054;-63
2024/03/28 08:46:17;;;;;;;2.72;2.53;;;;;;;8.19;64.82;97585.28;5085577;28;20028;-63
2024/03/28 08:48:46;;;;;;;4.25;2.00;;;;;;;8.20;64.95;97583.56;5085698;28;20020;-64
2024/03/28 08:51:17;;;;;;;3.08;2.50;;;;;;;8.21;64.95;97579.22;5085623;28;20024;-63
2024/03/28 08:53:42;;;;;;;2.72;2.53;;;;;;;8.12;65.26;97559.78;5085202;28;20051;-63
2024/03/28 08:56:08;;;;;;;6.85;2.30;;;;;;;8.24;65.24;97568.75;5085556;28;20017;-63
2024/03/28 08:58:34;;;;;;;2.70;1.48;;;;;;;8.21;65.65;97566.31;5084942;28;20030;-63
2024/03/28 09:01:00;;;;;;;5.65;3.20;;;;;;;8.23;66.03;97573.06;5085423;28;20028;-64
2024/03/28 09:03:26;;;;;;;3.58;2.92;;;;;;;8.21;65.94;97558.56;5085203;28;20024;-64
2024/03/28 09:05:51;;;;;;;6.10;1.95;;;;;;;8.24;66.08;97555.84;5085251;28;20051;-64
2024/03/28 09:08:19;;;;;;;5.65;3.05;;;;;;;8.25;66.57;97555.75;5085219;28;20108;-64
2024/03/28 09:10:53;;;;;;;3.67;2.33;;;;;;;8.25;66.50;97549.75;5085003;28;20028;-64
2024/03/28 09:13:18;;;;;;;4.10;3.05;;;;;;;8.25;66.63;97554.91;5085332;28;20025;-64
2024/03/28 09:15:44;;;;;;;3.15;1.48;;;;;;;8.26;66.77;97548.84;5085308;28;20059;-63
2024/03/28 09:18:10;;;;;;;4.10;2.80;;;;;;;8.28;66.67;97547.03;5085475;28;20024;-63
2024/03/28 09:20:36;;;;;;;4.82;2.63;;;;;;;8.28;66.91;97545.28;5085265;28;20020;-63
2024/03/28 09:23:02;;;;;;;3.35;1.80;;;;;;;8.26;66.77;97536.75;5085125;28;20090;-64
2024/03/28 09:25:27;;;;;;;4.10;3.40;;;;;;;8.25;66.82;97537.66;5084789;28;20032;-63
2024/03/28 09:27:53;;;;;;;5.35;2.72;;;;;;;8.26;66.69;97534.16;5085219;28;20025;-63
2024/03/28 09:30:18;;;;;;;5.00;3.30;;;;;;;8.28;66.98;97532.38;5085241;28;20028;-64
2024/03/28 09:32:47;;;;;;;6.70;3.47;;;;;;;8.39;66.71;97526.69;5085139;28;20025;-63
2024/03/28 09:35:12;;;;;;;6.55;3.35;;;;;;;8.42;66.63;97523.97;5084840;28;20508;-63
2024/03/28 09:37:37;;;;;;;5.75;3.47;;;;;;;8.47;66.41;97525.50;5085304;28;20028;-64
2024/03/28 09:40:06;;;;;;;4.45;2.60;;;;;;;8.50;66.69;97520.22;5085021;28;20484;-64
2024/03/28 09:42:36;;;;;;;6.60;3.70;;;;;;;8.58;66.58;97536.22;5085275;28;20035;-64
2024/03/28 09:45:04;;;;;;;8.38;3.10;;;;;;;8.63;66.24;97523.91;5084958;28;20025;-64
2024/03/28 09:47:31;;;;;;;2.80;2.20;;;;;;;8.63;66.44;97526.50;5084871;28;20056;-64
2024/03/28 09:49:57;;;;;;;2.33;1.98;;;;;;;8.65;66.38;97523.84;5085078;28;20025;-65
2024/03/28 09:52:23;;;;;;;3.15;2.78;;;;;;;8.63;66.68;97512.72;5085011;28;20040;-64
2024/03/28 09:54:50;;;;;;;6.05;3.05;;;;;;;8.68;66.48;97521.09;5084543;28;20364;-65
2024/03/28 09:57:15;;;;;;;6.38;2.90;;;;;;;8.72;66.66;97521.81;5084999;28;20076;-63
2024/03/28 09:59:40;;;;;;;15.63;3.28;;;;;;;8.78;66.44;97526.69;5084858;28;20084;-64
2024/03/28 10:02:12;;;;;;;2.15;1.95;;;;;;;8.81;66.76;97529.13;5084988;28;20027;-62
2024/03/28 10:04:42;;;;;;;4.57;3.35;;;;;;;8.83;66.73;97514.38;5084793;28;20034;-64
2024/03/28 10:07:10;;;;;;;9.38;3.60;;;;;;;8.86;66.83;97509.06;5084646;28;20117;-63
2024/03/28 10:09:36;;;;;;;4.78;3.83;;;;;;;8.91;66.89;97509.66;5086079;28;20048;-63
2024/03/28 10:12:12;;;;;;;3.38;2.95;;;;;;;9.00;67.05;97507.53;5088878;28;20472;-62
2024/03/28 10:14:39;;;;;;;4.60;2.83;;;;;;;9.01;66.85;97504.06;5087112;28;20026;-64
2024/03/28 10:17:05;;;;;;;4.85;2.35;;;;;;;9.09;66.70;97504.50;5087341;28;20472;-63
2024/03/28 10:19:33;;;;;;;3.63;2.33;;;;;;;9.13;67.03;97511.22;5088595;28;20247;-63
2024/03/28 10:22:10;;;;;;;9.38;3.85;;;;;;;9.11;66.74;97492.31;5088493;28;20538;-63
2024/03/28 10:24:45;;;;;;;3.72;2.22;;;;;;;9.15;66.84;97490.44;5086670;28;20028;-62
2024/03/28 10:27:15;;;;;;;3.28;2.08;;;;;;;9.22;66.87;97488.38;5088501;28;20021;-63
2024/03/28 10:29:51;;;;;;;8.48;4.32;;;;;;;9.26;66.67;97484.72;5086905;28;20031;-63
2024/03/28 10:32:17;;;;;;;4.57;3.53;;;;;;;9.32;66.76;97474.03;5088502;28;20042;-63
2024/03/28 10:34:50;;;;;;;2.92;2.60;;;;;;;9.41;66.68;97478.75;5086674;28;20025;-64
2024/03/28 10:37:27;;;;;;;5.07;3.33;;;;;;;9.42;66.68;97474.41;5088594;28;20040;-63
2024/03/28 10:39:53;;;;;;;5.40;3.28;;;;;;;9.52;66.60;97470.44;5087902;28;20058;-64
2024/03/28 10:42:18;;;;;;;4.50;2.70;;;;;;;9.57;66.38;97459.81;5088228;28;20084;-62
2024/03/28 10:44:48;;;;;;;6.22;3.20;;;;;;;9.63;66.29;97454.31;5086518;28;20027;-63
2024/03/28 10:47:17;;;;;;;5.38;2.78;;;;;;;9.62;66.59;97441.47;5088064;28;20021;-65
2024/03/28 10:49:59;;;;;;;8.25;3.03;;;;;;;9.69;66.50;97432.47;5088083;28;20024;-63
2024/03/28 10:53:00;;;;;;;3.60;2.60;;;;;;;9.78;66.49;97438.91;5088122;28;20028;-63
2024/03/28 10:55:35;;;;;;;3.92;2.95;;;;;;;9.81;66.44;97432.72;5055042;28;20456;-63
2024/03/28 10:58:03;;;;;;;3.75;2.30;;;;;;;9.87;66.41;97432.41;5087878;28;20029;-63
2024/03/28 11:00:29;;;;;;;4.35;3.03;;;;;;;9.92;66.21;97428.63;5086294;28;20035;-64
2024/03/28 11:02:55;;;;;;;2.38;2.17;;;;;;;9.99;66.20;97428.31;5087757;28;20028;-64
2024/03/28 11:05:23;;;;;;;4.82;3.03;;;;;;;10.01;65.98;97434.25;5087392;28;21868;-64
2024/03/28 11:07:50;;;;;;;6.30;2.83;;;;;;;10.03;66.04;97419.47;5087565;28;20037;-64
2024/03/28 11:10:15;;;;;;;4.60;2.90;;;;;;;10.03;65.92;97420.28;5087428;28;20021;-64
2024/03/28 11:12:41;;;;;;;3.20;2.58;;;;;;;10.03;65.99;97412.50;5087701;28;20111;-63
2024/03/28 11:15:09;;;;;;;4.80;3.08;;;;;;;10.06;65.97;97415.84;5087266;28;20028;-63
2024/03/28 11:17:40;;;;;;;2.70;2.28;;;;;;;10.08;65.85;97420.03;5087715;28;20036;-63
2024/03/28 11:20:08;;;;;;;6.78;2.88;;;;;;;10.12;65.92;97416.34;5086702;28;20117;-64
2024/03/28 11:22:34;;;;;;;3.80;2.95;;;;;;;10.14;65.88;97409.31;5086065;28;20051;-64
2024/03/28 11:24:59;;;;;;;2.53;2.17;;;;;;;10.16;65.63;97407.47;5102645;28;20032;-64
2024/03/28 11:27:25;;;;;;;4.15;2.08;;;;;;;10.20;65.91;97410.75;5087054;28;20112;-64
2024/03/28 11:30:07;;;;;;;2.47;2.22;;;;;;;10.17;65.85;97400.56;5087013;28;20400;-63
2024/03/28 11:32:33;;;;;;;7.65;2.35;;;;;;;10.16;65.56;97402.28;5087318;28;20028;-64
2024/03/28 11:35:07;;;;;;;2.47;2.03;;;;;;;10.14;65.93;97403.31;5085609;28;20016;-64
2024/03/28 11:37:32;;;;;;;3.90;2.33;;;;;;;10.12;65.52;97399.97;5087066;28;20025;-63
2024/03/28 11:39:58;;;;;;;3.70;2.50;;;;;;;10.04;65.46;97396.06;5087022;28;20088;-64
2024/03/28 11:42:23;;;;;;;3.78;2.22;;;;;;;9.99;65.96;97389.44;5086910;28;20021;-63
2024/03/28 11:44:48;;;;;;;5.95;2.83;;;;;;;10.01;65.95;97388.44;5086707;28;20031;-63
2024/03/28 11:47:20;;;;;;;5.82;2.80;;;;;;;9.95;65.78;97386.19;5086826;28;20032;-63